Time;durP1;ratioP1;P1;durP2;ratioP2;P2;SDS_P1;SDS_P2;PMS_P1;PMS_P2;Temp;Humidity;BMP_temperature;BMP_pressure;BME280_temperature;BME280_humidity;BME280_pressure;Samples;Min_cycle;Max_cycle;Signal;HPM_P1;HPM_P2
2022/07/03 00:00:42;;;;;;;13.82;9.57;;;;;;;24.14;nan;95619.72;6257950;22;20011;-83
2022/07/03 00:03:07;;;;;;;12.60;10.20;;;;;;;23.78;nan;95584.75;6260352;22;20065;-83
2022/07/03 00:05:33;;;;;;;13.30;9.60;;;;;;;24.05;nan;95639.97;6260381;22;20011;-83
2022/07/03 00:07:58;;;;;;;13.80;9.73;;;;;;;24.13;nan;95634.41;6260752;22;20020;-83
2022/07/03 00:10:24;;;;;;;13.27;9.10;;;;;;;23.87;nan;95604.31;6258565;22;20012;-83
2022/07/03 00:12:49;;;;;;;11.82;8.75;;;;;;;24.29;nan;95683.22;6257689;22;20026;-83
2022/07/03 00:15:15;;;;;;;11.65;9.57;;;;;;;24.36;nan;95690.75;6257826;22;20019;-83
2022/07/03 00:17:40;;;;;;;11.73;8.80;;;;;;;24.12;nan;95642.88;6257906;22;20012;-83
2022/07/03 00:20:06;;;;;;;13.43;8.45;;;;;;;23.72;nan;95592.34;6257811;22;20011;-84
2022/07/03 00:22:37;;;;;;;16.90;8.75;;;;;;;23.79;nan;95595.22;6257865;22;20016;-83
2022/07/03 00:25:05;;;;;;;12.13;9.18;;;;;;;23.18;nan;95534.38;6258332;22;20022;-84
2022/07/03 00:27:33;;;;;;;19.17;8.82;;;;;;;24.21;nan;95676.03;6260558;22;20454;-84
2022/07/03 00:30:00;;;;;;;15.73;9.57;;;;;;;24.22;nan;95673.00;6259955;22;20101;-84
2022/07/03 00:32:27;;;;;;;16.50;9.52;;;;;;;23.77;nan;95602.91;6258164;22;20023;-84
2022/07/03 00:34:55;;;;;;;15.90;10.18;;;;;;;23.85;nan;95623.63;6258813;22;20039;-83
2022/07/03 00:37:21;;;;;;;21.45;12.20;;;;;;;23.35;nan;95553.00;6259736;22;20008;-83
2022/07/03 00:39:48;;;;;;;16.25;10.88;;;;;;;23.45;nan;95598.50;6259506;22;20482;-84
2022/07/03 00:42:14;;;;;;;19.75;11.50;;;;;;;23.78;nan;95628.06;6257952;22;20050;-83
2022/07/03 00:44:51;;;;;;;24.75;12.65;;;;;;;23.93;nan;95656.31;6259382;22;20031;-83
2022/07/03 00:47:18;;;;;;;30.23;13.23;;;;;;;23.46;nan;95592.75;6257420;22;20019;-83
2022/07/03 00:49:47;;;;;;;27.40;13.18;;;;;;;23.54;nan;95577.53;6257085;22;20084;-83
2022/07/03 00:52:14;;;;;;;22.17;12.40;;;;;;;23.88;nan;95632.97;6258229;22;20500;-83
2022/07/03 00:54:44;;;;;;;23.45;11.90;;;;;;;23.93;nan;95651.69;6257292;22;20359;-83
2022/07/03 00:57:15;;;;;;;20.67;10.63;;;;;;;23.11;nan;95570.13;6258547;22;20039;-83
2022/07/03 00:59:40;;;;;;;16.88;10.13;;;;;;;23.60;nan;95616.75;6259152;22;20015;-82
2022/07/03 01:02:06;;;;;;;17.30;9.73;;;;;;;23.34;nan;95571.19;6232441;22;20007;-83
2022/07/03 01:04:34;;;;;;;20.70;9.50;;;;;;;23.77;nan;95646.22;6260082;22;20431;-83
2022/07/03 01:07:07;;;;;;;15.93;9.52;;;;;;;23.66;nan;95644.34;6230966;22;20092;-83
2022/07/03 01:10:03;;;;;;;15.23;10.20;;;;;;;23.77;nan;95640.81;6232130;22;20016;-83
2022/07/03 01:13:06;;;;;;;13.88;10.25;;;;;;;23.75;nan;95647.72;6232135;22;20019;-83
2022/07/03 01:15:53;;;;;;;13.32;9.50;;;;;;;23.61;nan;95629.16;6231383;22;20371;-83
2022/07/03 01:18:24;;;;;;;13.43;8.70;;;;;;;23.58;nan;95632.53;6261070;22;20027;-83
2022/07/03 01:21:01;;;;;;;14.23;8.90;;;;;;;23.56;nan;95632.13;6232461;22;20490;-83
2022/07/03 01:24:18;;;;;;;16.08;9.55;;;;;;;23.64;nan;95630.41;6260249;22;20038;-83
2022/07/03 01:26:46;;;;;;;15.13;9.40;;;;;;;23.19;nan;95566.47;6151203;22;20013;-83
2022/07/03 01:29:22;;;;;;;16.20;9.95;;;;;;;23.21;nan;95585.06;6260008;22;20445;-83
2022/07/03 01:31:51;;;;;;;14.82;9.82;;;;;;;23.46;nan;95627.94;6259759;22;20079;-83
2022/07/03 01:34:18;;;;;;;24.38;9.82;;;;;;;22.69;nan;95513.66;6258090;22;20008;-83
2022/07/03 01:36:47;;;;;;;15.02;9.45;;;;;;;23.46;nan;95629.88;6231049;22;20344;-83
2022/07/03 01:39:16;;;;;;;16.73;9.55;;;;;;;23.34;nan;95605.56;6230912;22;20493;-83
2022/07/03 01:41:47;;;;;;;15.82;10.13;;;;;;;23.53;nan;95629.31;6255176;22;20085;-83
2022/07/03 01:44:14;;;;;;;14.27;9.05;;;;;;;23.25;nan;95596.78;6258268;22;20011;-83
2022/07/03 01:46:45;;;;;;;17.15;9.52;;;;;;;23.38;nan;95633.50;6259197;22;20486;-82
2022/07/03 01:49:15;;;;;;;16.38;8.70;;;;;;;23.16;nan;95586.13;6231945;22;20027;-83
2022/07/03 01:51:42;;;;;;;12.50;8.75;;;;;;;23.43;nan;95631.34;6231697;22;20007;-83
2022/07/03 01:54:10;;;;;;;17.45;8.68;;;;;;;23.34;nan;95624.50;6232528;22;20506;-83
2022/07/03 01:56:36;;;;;;;22.77;8.90;;;;;;;22.78;nan;95528.97;6234992;22;20027;-84
2022/07/03 01:59:03;;;;;;;10.38;8.70;;;;;;;22.77;nan;95546.31;6257743;22;20343;-83
2022/07/03 02:01:52;;;;;;;13.80;9.27;;;;;;;22.25;nan;95628.09;6258745;22;20012;-82
2022/07/03 02:04:28;;;;;;;11.65;9.38;;;;;;;21.99;nan;95641.09;6258700;22;20011;-83
2022/07/03 02:07:09;;;;;;;14.27;8.98;;;;;;;22.35;nan;95643.09;6260066;22;20012;-83
2022/07/03 02:09:53;;;;;;;19.75;9.35;;;;;;;22.01;nan;95560.53;6261498;22;20023;-83
2022/07/03 02:12:19;;;;;;;14.30;9.13;;;;;;;22.21;nan;95576.66;6259540;22;20017;-82
2022/07/03 02:15:06;;;;;;;17.23;9.35;;;;;;;22.81;nan;95639.16;6257595;22;20018;-83
2022/07/03 02:17:43;;;;;;;16.00;9.23;;;;;;;22.85;nan;95635.44;6258489;22;20007;-83
2022/07/03 02:20:10;;;;;;;15.10;9.80;;;;;;;22.93;nan;95641.84;6256726;22;20011;-83
2022/07/03 02:22:46;;;;;;;21.23;9.57;;;;;;;22.86;nan;95628.91;6259338;22;20092;-82
2022/07/03 02:25:33;;;;;;;14.20;10.45;;;;;;;22.94;nan;95643.44;6257916;22;20012;-83
2022/07/03 02:28:53;;;;;;;14.32;9.98;;;;;;;22.97;nan;95645.44;6258300;22;20046;-83
2022/07/03 02:31:23;;;;;;;12.95;9.07;;;;;;;22.75;nan;95581.03;6194951;23;20110;-83
2022/07/03 02:33:54;;;;;;;17.27;9.98;;;;;;;22.17;nan;95491.22;6247486;22;20542;-83
2022/07/03 02:36:23;;;;;;;19.30;10.57;;;;;;;22.80;nan;95608.63;6259657;22;20018;-82
2022/07/03 02:38:53;;;;;;;15.98;9.90;;;;;;;22.38;nan;95542.41;6259124;22;20011;-84
2022/07/03 02:41:28;;;;;;;17.65;10.15;;;;;;;22.78;nan;95612.81;6256389;22;20077;-83
2022/07/03 02:44:04;;;;;;;23.48;10.82;;;;;;;23.20;nan;95654.63;6256722;22;20088;-83
2022/07/03 02:46:49;;;;;;;17.25;10.57;;;;;;;23.17;nan;95651.84;6260885;22;20011;-83
2022/07/03 02:49:48;;;;;;;18.40;10.25;;;;;;;22.13;nan;95514.63;6258144;22;20494;-83
2022/07/03 02:52:42;;;;;;;18.33;10.35;;;;;;;22.93;nan;95649.97;6260032;22;20157;-83
2022/07/03 02:55:31;;;;;;;14.88;10.48;;;;;;;22.70;nan;95615.25;6256538;22;20027;-84
2022/07/03 02:58:38;;;;;;;16.40;9.73;;;;;;;22.97;nan;95659.75;6256899;22;20034;-83
2022/07/03 03:01:09;;;;;;;14.68;9.55;;;;;;;22.96;nan;95655.47;6259851;22;20077;-83
2022/07/03 03:03:34;;;;;;;;;;;;;;;22.92;nan;95657.28;6260938;22;20031;-84
2022/07/03 03:06:03;;;;;;;16.80;9.73;;;;;;;22.60;nan;95601.41;6258184;22;19914;-83
2022/07/03 03:08:47;;;;;;;12.85;9.90;;;;;;;22.14;nan;95538.59;6259640;22;20016;-83
2022/07/03 03:11:37;;;;;;;20.25;10.85;;;;;;;22.98;nan;95664.03;6257464;22;20500;-83
2022/07/03 03:14:07;;;;;;;14.88;10.68;;;;;;;22.49;nan;95603.78;6257258;22;20019;-83
2022/07/03 03:16:33;;;;;;;16.58;10.43;;;;;;;22.93;nan;95658.88;6260101;22;20018;-83
2022/07/03 03:18:58;;;;;;;17.17;10.70;;;;;;;22.49;nan;95597.59;6257343;22;20450;-83
2022/07/03 03:21:27;;;;;;;19.42;9.88;;;;;;;22.51;nan;95609.63;6256391;22;20118;-83
2022/07/03 03:23:52;;;;;;;18.08;10.10;;;;;;;22.82;nan;95644.22;6260205;22;20038;-83
2022/07/03 03:26:20;;;;;;;16.85;9.88;;;;;;;22.76;nan;95644.78;6258094;22;20483;-83
2022/07/03 03:28:45;;;;;;;19.13;11.27;;;;;;;22.85;nan;95659.78;6256478;22;20023;-83
2022/07/03 03:31:12;;;;;;;20.10;10.43;;;;;;;22.55;nan;95651.09;6255673;22;20442;-83
2022/07/03 03:33:43;;;;;;;16.15;10.32;;;;;;;22.17;nan;95624.38;6258909;22;20477;-84
2022/07/03 03:36:12;;;;;;;21.00;11.48;;;;;;;22.51;nan;95671.00;6257622;22;20003;-84
2022/07/03 03:38:40;;;;;;;17.35;10.45;;;;;;;22.57;nan;95656.16;6259094;22;20355;-83
2022/07/03 03:41:06;;;;;;;19.10;12.10;;;;;;;22.81;nan;95669.69;6257345;22;20069;-83
2022/07/03 03:43:33;;;;;;;19.20;11.23;;;;;;;22.80;nan;95670.84;6259090;22;20008;-83
2022/07/03 03:46:00;;;;;;;18.23;10.70;;;;;;;22.82;nan;95654.25;6258449;22;20015;-83
2022/07/03 03:48:30;;;;;;;18.58;11.05;;;;;;;22.49;nan;95606.50;6282705;22;20111;-83
2022/07/03 03:50:56;;;;;;;18.63;10.85;;;;;;;22.26;nan;95594.56;6257423;22;20634;-83
2022/07/03 03:53:24;;;;;;;15.63;10.75;;;;;;;22.37;nan;95584.88;6255587;22;20776;-83
2022/07/03 03:56:10;;;;;;;17.65;11.20;;;;;;;22.23;nan;95585.22;6255721;22;20146;-83
2022/07/03 03:58:38;;;;;;;27.38;12.80;;;;;;;22.48;nan;95613.03;6258498;22;20015;-82
2022/07/03 04:01:06;;;;;;;19.30;11.98;;;;;;;22.79;nan;95680.06;6230780;22;20019;-83
2022/07/03 04:03:33;;;;;;;19.08;11.68;;;;;;;22.92;nan;95678.91;6230894;22;20069;-83
2022/07/03 04:05:58;;;;;;;19.60;12.20;;;;;;;22.46;nan;95612.56;6257575;22;20003;-83
2022/07/03 04:08:25;;;;;;;17.88;12.10;;;;;;;22.73;nan;95650.88;6231195;22;20077;-83
2022/07/03 04:10:51;;;;;;;16.63;11.75;;;;;;;22.47;nan;95624.97;6258357;22;20012;-83
2022/07/03 04:13:21;;;;;;;23.25;13.13;;;;;;;22.44;nan;95635.63;6231586;22;20036;-83
2022/07/03 04:15:48;;;;;;;16.77;12.35;;;;;;;22.81;nan;95679.72;6231678;22;20011;-83
2022/07/03 04:18:14;;;;;;;19.33;11.70;;;;;;;22.37;nan;95630.00;6256842;22;20008;-83
2022/07/03 04:20:40;;;;;;;19.08;12.13;;;;;;;22.45;nan;95646.13;6231025;22;20434;-83
2022/07/03 04:23:05;;;;;;;16.65;11.32;;;;;;;22.13;nan;95572.13;6259373;22;20008;-83
2022/07/03 04:25:31;;;;;;;16.33;11.95;;;;;;;21.88;nan;95528.13;6258769;22;20011;-82
2022/07/03 04:27:57;;;;;;;22.45;12.77;;;;;;;22.57;nan;95638.03;6230632;22;20015;-83
2022/07/03 04:30:22;;;;;;;24.90;13.57;;;;;;;22.64;nan;95632.06;6259198;22;20038;-82
2022/07/03 04:32:49;;;;;;;19.73;12.55;;;;;;;22.68;nan;95614.00;6230719;22;20018;-83
2022/07/03 04:35:15;;;;;;;20.10;12.25;;;;;;;22.65;nan;95601.97;6231840;22;20019;-83
2022/07/03 04:37:41;;;;;;;23.65;13.15;;;;;;;23.15;nan;95668.41;6230915;22;20395;-82
2022/07/03 04:40:07;;;;;;;18.00;13.52;;;;;;;22.89;nan;95628.19;6230934;22;20122;-82
2022/07/03 04:42:34;;;;;;;27.02;13.75;;;;;;;22.48;nan;95555.47;6258074;22;20038;-82
2022/07/03 04:44:59;;;;;;;18.20;12.60;;;;;;;22.62;nan;95589.13;6230361;22;20100;-83
2022/07/03 04:47:24;;;;;;;20.13;12.73;;;;;;;22.02;nan;95508.13;6231258;22;20366;-83
2022/07/03 04:49:50;;;;;;;21.85;12.98;;;;;;;22.77;nan;95595.00;6258365;22;20015;-83
2022/07/03 04:52:17;;;;;;;25.83;12.73;;;;;;;23.09;nan;95665.16;6231742;22;20102;-83
2022/07/03 04:54:43;;;;;;;25.33;12.93;;;;;;;23.11;nan;95682.97;6230684;22;20003;-83
2022/07/03 04:57:09;;;;;;;26.70;12.65;;;;;;;22.81;nan;95610.19;6258613;22;20494;-82
2022/07/03 04:59:34;;;;;;;19.05;14.10;;;;;;;22.68;nan;95617.50;6229759;22;20018;-82
2022/07/03 05:01:59;;;;;;;22.77;13.10;;;;;;;22.80;nan;95641.09;6257442;22;20012;-83
2022/07/03 05:04:25;;;;;;;30.55;13.35;;;;;;;22.90;nan;95621.66;6257521;22;20046;-83
2022/07/03 05:06:50;;;;;;;25.20;13.70;;;;;;;23.35;nan;95672.84;6231059;22;20054;-83
2022/07/03 05:09:16;;;;;;;28.33;12.55;;;;;;;23.25;nan;95640.09;6258948;22;20019;-82
2022/07/03 05:11:41;;;;;;;23.25;13.02;;;;;;;22.77;nan;95582.28;6258232;22;20011;-83
2022/07/03 05:14:07;;;;;;;16.80;13.48;;;;;;;23.09;nan;95642.72;6230477;22;20015;-83
2022/07/03 05:16:33;;;;;;;21.60;13.38;;;;;;;23.05;nan;95623.66;6230988;22;20022;-83
2022/07/03 05:18:59;;;;;;;18.83;13.05;;;;;;;23.27;nan;95643.22;6231171;22;20118;-83
2022/07/03 05:21:25;;;;;;;18.08;13.13;;;;;;;22.65;nan;95571.47;6259308;22;20038;-83
2022/07/03 05:23:50;;;;;;;15.70;12.20;;;;;;;22.74;nan;95596.47;6232871;22;20011;-83
2022/07/03 05:26:16;;;;;;;21.23;13.70;;;;;;;22.51;nan;95563.69;6260078;22;20011;-83
2022/07/03 05:28:42;;;;;;;25.33;13.95;;;;;;;22.89;nan;95641.72;6232965;22;20523;-83
2022/07/03 05:31:07;;;;;;;20.40;13.02;;;;;;;22.66;nan;95610.84;6233730;22;20131;-84
2022/07/03 05:33:33;;;;;;;16.20;12.75;;;;;;;22.99;nan;95638.56;6232412;22;20016;-83
2022/07/03 05:35:59;;;;;;;18.48;11.68;;;;;;;22.95;nan;95631.47;6232636;22;20019;-83
2022/07/03 05:41:09;;;;;;;22.35;11.90;;;;;;;22.73;nan;95623.81;6260020;22;20446;-83
2022/07/03 05:43:35;;;;;;;17.40;12.45;;;;;;;22.64;nan;95599.63;6232176;22;20011;-84
2022/07/03 05:46:00;;;;;;;23.13;12.77;;;;;;;22.45;nan;95581.25;6260883;22;20011;-83
2022/07/03 05:48:26;;;;;;;15.48;11.00;;;;;;;23.02;nan;95629.78;6260628;22;20378;-83
2022/07/03 05:50:52;;;;;;;16.75;11.93;;;;;;;22.86;nan;95609.97;6232805;22;20023;-83
2022/07/03 05:53:18;;;;;;;22.98;12.45;;;;;;;23.08;nan;95644.63;6260867;22;20111;-83
2022/07/03 05:55:43;;;;;;;16.40;11.73;;;;;;;22.71;nan;95578.19;6259610;22;20012;-84
2022/07/03 05:58:09;;;;;;;18.95;11.70;;;;;;;23.07;nan;95609.81;6260215;22;20038;-83
2022/07/03 06:00:35;;;;;;;20.20;11.18;;;;;;;23.33;nan;95668.94;6231569;22;20153;-83
2022/07/03 06:03:01;;;;;;;18.60;11.85;;;;;;;23.47;nan;95680.97;6260087;22;20116;-83
2022/07/03 06:05:27;;;;;;;22.20;12.32;;;;;;;23.49;nan;95677.94;6260280;22;20058;-83
2022/07/03 06:07:53;;;;;;;19.58;12.68;;;;;;;23.14;nan;95611.94;6259102;22;20004;-84
2022/07/03 06:10:18;;;;;;;17.20;11.95;;;;;;;23.26;nan;95620.03;6231835;22;20019;-84
2022/07/03 06:12:43;;;;;;;20.48;11.70;;;;;;;23.64;nan;95674.50;6232451;22;20011;-83
2022/07/03 06:15:09;;;;;;;24.90;12.70;;;;;;;23.01;nan;95540.84;6236141;22;20012;-83
2022/07/03 06:17:36;;;;;;;21.48;12.52;;;;;;;23.32;nan;95599.69;6232283;22;20094;-83
2022/07/03 06:20:02;;;;;;;17.63;11.07;;;;;;;23.79;nan;95651.31;6232556;22;20007;-84
2022/07/03 06:22:28;;;;;;;18.35;11.23;;;;;;;23.85;nan;95647.22;6232847;22;20016;-83
2022/07/03 06:24:53;;;;;;;15.30;11.27;;;;;;;24.25;nan;95679.66;6260393;22;20104;-83
2022/07/03 06:27:19;;;;;;;13.80;10.45;;;;;;;24.22;nan;95673.00;6232681;22;20015;-83
2022/07/03 06:29:44;;;;;;;18.45;11.40;;;;;;;24.19;nan;95651.97;6232687;22;20073;-84
2022/07/03 06:32:10;;;;;;;20.38;11.75;;;;;;;24.05;nan;95616.38;6259855;22;20434;-83
2022/07/03 06:34:35;;;;;;;15.65;11.55;;;;;;;23.96;nan;95614.97;6232229;22;20012;-83
2022/07/03 06:37:01;;;;;;;16.67;11.68;;;;;;;23.58;nan;95602.75;6259712;22;20051;-84
2022/07/03 06:39:26;;;;;;;14.27;10.38;;;;;;;24.21;nan;95674.13;6232309;22;20029;-83
2022/07/03 06:41:52;;;;;;;16.30;12.10;;;;;;;23.87;nan;95627.91;6231844;22;20015;-84
2022/07/03 06:44:17;;;;;;;16.50;11.18;;;;;;;23.98;nan;95616.22;6232415;22;20430;-83
2022/07/03 06:46:43;;;;;;;18.38;10.48;;;;;;;24.08;nan;95599.44;6231043;22;20011;-83
2022/07/03 06:49:08;;;;;;;15.57;10.50;;;;;;;24.29;nan;95617.38;6258398;22;20078;-84
2022/07/03 06:51:33;;;;;;;19.85;11.25;;;;;;;24.19;nan;95584.22;6230858;22;20016;-84
2022/07/03 06:53:59;;;;;;;17.38;10.18;;;;;;;24.50;nan;95624.09;6259538;22;20451;-84
2022/07/03 06:56:25;;;;;;;20.08;10.95;;;;;;;24.43;nan;95618.50;6259127;22;20023;-83
2022/07/03 06:58:50;;;;;;;19.25;11.68;;;;;;;24.77;nan;95654.97;6259347;22;20030;-83
2022/07/03 07:01:16;;;;;;;14.27;10.05;;;;;;;24.86;nan;95668.34;6232227;22;20763;-84
2022/07/03 07:03:41;;;;;;;14.98;11.10;;;;;;;24.40;nan;95558.81;6259299;22;20423;-83
2022/07/03 07:06:07;;;;;;;21.08;11.20;;;;;;;24.90;nan;95631.22;6259581;22;20429;-83
2022/07/03 07:08:32;;;;;;;16.15;10.48;;;;;;;25.03;nan;95651.69;6231538;22;20412;-84
2022/07/03 07:10:58;;;;;;;16.52;10.80;;;;;;;24.43;nan;95580.56;6259509;22;20124;-83
2022/07/03 07:13:23;;;;;;;16.55;10.18;;;;;;;24.53;nan;95571.91;6259738;22;20018;-84
2022/07/03 07:15:48;;;;;;;15.80;10.10;;;;;;;24.76;nan;95601.06;6231888;22;20158;-83
2022/07/03 07:18:14;;;;;;;24.35;10.40;;;;;;;24.87;nan;95638.13;6259316;22;20007;-83
2022/07/03 07:20:40;;;;;;;14.82;10.00;;;;;;;25.14;nan;95655.44;6231841;22;20023;-84
2022/07/03 07:23:05;;;;;;;14.60;10.60;;;;;;;25.32;nan;95664.78;6231751;22;20448;-83
2022/07/03 07:25:31;;;;;;;24.23;10.73;;;;;;;25.14;nan;95619.38;6231338;22;20022;-83
2022/07/03 07:27:56;;;;;;;14.48;10.70;;;;;;;25.05;nan;95606.00;6259370;22;20007;-83
2022/07/03 07:30:22;;;;;;;12.23;9.25;;;;;;;24.94;nan;95578.66;6231425;22;20027;-84
2022/07/03 07:32:47;;;;;;;13.77;9.68;;;;;;;24.93;nan;95590.66;6258793;22;20075;-83
2022/07/03 07:35:13;;;;;;;14.88;10.90;;;;;;;25.35;nan;95644.25;6259407;22;20450;-83
2022/07/03 07:37:38;;;;;;;16.60;10.07;;;;;;;25.42;nan;95632.75;6231245;22;20113;-83
2022/07/03 07:40:04;;;;;;;16.58;9.75;;;;;;;24.93;nan;95560.03;6258778;22;20004;-83
2022/07/03 07:42:29;;;;;;;17.17;10.52;;;;;;;25.34;nan;95626.38;6231713;22;20015;-83
2022/07/03 07:44:55;;;;;;;19.35;10.18;;;;;;;25.33;nan;95631.03;6259424;22;20414;-84
2022/07/03 07:47:20;;;;;;;16.00;11.02;;;;;;;25.23;nan;95601.75;6258998;22;20065;-84
2022/07/03 07:49:46;;;;;;;14.35;10.15;;;;;;;24.99;nan;95564.81;6230691;22;20018;-83
2022/07/03 07:52:11;;;;;;;20.02;10.38;;;;;;;25.17;nan;95599.69;6232213;22;20022;-83
2022/07/03 07:54:37;;;;;;;14.00;10.02;;;;;;;25.24;nan;95589.75;6231460;22;20414;-83
2022/07/03 07:57:02;;;;;;;16.48;10.13;;;;;;;25.43;nan;95615.31;6239504;22;20039;-84
2022/07/03 07:59:28;;;;;;;14.88;9.75;;;;;;;25.36;nan;95581.44;6259407;22;20027;-84
2022/07/03 08:07:21;;;;;;;15.38;8.82;;;;;;;25.51;nan;95576.28;6258483;22;20022;-84
2022/07/03 08:09:46;;;;;;;10.43;8.15;;;;;;;25.34;nan;95528.66;6256015;22;20466;-84
2022/07/03 08:12:12;;;;;;;9.65;8.38;;;;;;;25.91;nan;95609.28;6258404;22;20356;-83
2022/07/03 08:14:38;;;;;;;16.98;8.88;;;;;;;25.60;nan;95552.44;6256220;22;20023;-83
2022/07/03 08:17:04;;;;;;;14.32;8.13;;;;;;;25.95;nan;95639.22;6256289;22;20022;-83
2022/07/03 08:19:29;;;;;;;14.85;8.80;;;;;;;25.80;nan;95597.44;6255933;22;20030;-84
2022/07/03 08:21:55;;;;;;;12.70;8.88;;;;;;;25.53;nan;95530.56;6257322;22;20007;-84
2022/07/03 08:24:20;;;;;;;14.50;8.82;;;;;;;25.77;nan;95571.00;6255259;22;20011;-83
2022/07/03 08:26:46;;;;;;;20.70;8.93;;;;;;;26.05;nan;95622.34;6256032;22;20020;-83
2022/07/03 08:29:11;;;;;;;16.48;8.23;;;;;;;25.68;nan;95556.88;6258512;22;20016;-83
2022/07/03 08:31:37;;;;;;;12.57;8.77;;;;;;;25.72;nan;95554.97;6255822;22;20367;-83
2022/07/03 08:34:02;;;;;;;11.18;7.82;;;;;;;26.06;nan;95592.09;6256064;22;20094;-83
2022/07/03 08:36:28;;;;;;;13.25;8.40;;;;;;;25.97;nan;95560.88;6256797;22;20011;-83
2022/07/03 08:38:53;;;;;;;13.43;8.50;;;;;;;26.22;nan;95596.63;6258370;22;20446;-83
2022/07/03 08:41:20;;;;;;;13.00;7.35;;;;;;;26.06;nan;95589.38;6257586;22;20011;-83
2022/07/03 08:43:47;;;;;;;13.27;8.60;;;;;;;25.82;nan;95507.44;6259159;22;20008;-83
2022/07/03 08:46:14;;;;;;;14.02;8.48;;;;;;;26.22;nan;95558.56;6255816;22;20019;-83
2022/07/03 08:48:40;;;;;;;10.48;7.85;;;;;;;26.22;nan;95543.03;6258094;22;20019;-83
2022/07/03 08:51:05;;;;;;;12.38;7.80;;;;;;;26.73;nan;95618.81;6258254;22;20098;-83
2022/07/03 08:53:31;;;;;;;12.70;8.32;;;;;;;26.14;nan;95506.81;6255633;22;20022;-83
2022/07/03 08:55:56;;;;;;;12.32;8.35;;;;;;;26.23;nan;95516.66;6257569;22;20472;-84
2022/07/03 08:58:23;;;;;;;14.95;8.13;;;;;;;26.93;nan;95620.31;6262056;22;20035;-83
2022/07/03 09:00:49;;;;;;;11.20;6.90;;;;;;;26.74;nan;95566.78;6234938;22;20031;-83
2022/07/03 09:03:15;;;;;;;10.02;7.55;;;;;;;26.73;nan;95553.53;6233585;22;20015;-83
2022/07/03 09:05:40;;;;;;;9.63;6.80;;;;;;;27.14;nan;95614.41;6233611;22;20024;-83
2022/07/03 09:08:07;;;;;;;8.32;6.97;;;;;;;27.17;nan;95621.81;6234139;22;20105;-83
2022/07/03 09:10:33;;;;;;;11.88;6.82;;;;;;;27.10;nan;95603.44;6233952;22;20469;-83
2022/07/03 09:12:58;;;;;;;8.20;6.30;;;;;;;26.53;nan;95520.22;6261070;22;20502;-84
2022/07/03 09:15:24;;;;;;;9.38;6.50;;;;;;;26.98;nan;95578.41;6261865;22;20114;-83
2022/07/03 09:18:06;;;;;;;9.25;6.28;;;;;;;26.98;nan;95573.75;6260975;22;20011;-83
2022/07/03 09:20:40;;;;;;;13.77;6.15;;;;;;;27.36;nan;95612.72;6234480;22;20026;-83
2022/07/03 09:23:20;;;;;;;10.63;6.10;;;;;;;27.01;nan;95526.72;6233650;22;20019;-84
2022/07/03 09:25:53;;;;;;;10.63;7.00;;;;;;;27.59;nan;95605.25;6234435;22;20338;-83
2022/07/03 09:28:20;;;;;;;14.55;6.60;;;;;;;27.51;nan;95568.94;6234102;22;20024;-84
2022/07/03 09:31:00;;;;;;;11.18;6.57;;;;;;;27.59;nan;95573.34;6234877;22;20015;-84
2022/07/03 09:33:26;;;;;;;9.57;6.28;;;;;;;27.48;nan;95552.56;6233474;22;20114;-84
2022/07/03 09:35:54;;;;;;;7.50;5.93;;;;;;;27.53;nan;95535.91;6261610;22;20085;-83
2022/07/03 09:38:19;;;;;;;12.65;5.75;;;;;;;27.80;nan;95569.28;6261051;22;20306;-83
2022/07/03 09:40:48;;;;;;;9.52;5.55;;;;;;;28.24;nan;95600.09;6234341;22;20073;-84
2022/07/03 09:43:13;;;;;;;7.28;6.03;;;;;;;28.07;nan;95561.75;6234529;22;20047;-83
2022/07/03 09:45:48;;;;;;;7.90;6.75;;;;;;;28.09;nan;95537.59;6234057;22;20046;-83
2022/07/03 09:48:31;;;;;;;16.55;6.82;;;;;;;28.54;nan;95544.59;6234446;22;20023;-83
2022/07/03 09:51:14;;;;;;;16.42;6.88;;;;;;;29.57;nan;95586.94;6234020;22;20077;-83
2022/07/03 09:54:01;;;;;;;10.82;6.15;;;;;;;30.24;nan;95589.03;6260944;22;20046;-83
2022/07/03 09:56:28;;;;;;;12.60;5.95;;;;;;;31.16;nan;95586.25;6234756;22;20057;-83
2022/07/03 09:59:11;;;;;;;11.10;6.32;;;;;;;31.98;nan;95556.50;6261334;22;20074;-84
2022/07/03 10:01:41;;;;;;;8.93;4.93;;;;;;;32.42;nan;95539.38;6260067;22;20029;-83
2022/07/03 10:04:15;;;;;;;8.82;5.13;;;;;;;32.82;nan;95537.81;6261477;22;20036;-83
2022/07/03 10:06:51;;;;;;;12.40;5.40;;;;;;;33.41;nan;95583.53;6259112;22;20478;-83
2022/07/03 10:09:19;;;;;;;7.68;4.45;;;;;;;33.19;nan;95533.47;6260087;22;20019;-83
2022/07/03 10:11:45;;;;;;;6.90;5.05;;;;;;;33.55;nan;95575.09;6257267;22;20015;-84
2022/07/03 10:14:20;;;;;;;7.40;4.70;;;;;;;33.75;nan;95567.00;6257395;22;20394;-83
2022/07/03 10:16:46;;;;;;;11.80;5.13;;;;;;;33.91;nan;95570.69;6259761;22;20544;-83
2022/07/03 10:19:15;;;;;;;9.30;4.63;;;;;;;33.37;nan;95497.56;6258050;22;20008;-84
2022/07/03 10:21:42;;;;;;;9.48;4.57;;;;;;;33.61;nan;95521.19;6258376;22;20487;-84
2022/07/03 10:24:08;;;;;;;10.25;4.50;;;;;;;33.38;nan;95502.66;6257228;22;20102;-83
2022/07/03 10:26:34;;;;;;;9.73;4.65;;;;;;;33.74;nan;95508.47;6261013;22;20030;-84
2022/07/03 10:29:02;;;;;;;9.02;4.00;;;;;;;34.24;nan;95519.53;6257172;22;20055;-83
2022/07/03 10:31:28;;;;;;;10.45;4.18;;;;;;;34.36;nan;95513.41;6259783;22;20442;-84
2022/07/03 10:33:54;;;;;;;8.70;4.03;;;;;;;34.69;nan;95549.44;6257852;22;20019;-84
2022/07/03 10:36:21;;;;;;;12.75;4.25;;;;;;;34.40;nan;95511.38;6259516;22;20181;-83
2022/07/03 10:38:49;;;;;;;5.38;3.50;;;;;;;33.68;nan;95491.63;6257590;22;20335;-84
2022/07/03 10:47:01;;;;;;;8.15;3.90;;;;;;;32.92;nan;95525.16;6260284;22;20026;-84
2022/07/03 10:49:27;;;;;;;10.60;4.72;;;;;;;32.69;nan;95519.53;6283119;22;20027;-83
2022/07/03 10:52:02;;;;;;;9.38;4.10;;;;;;;33.01;nan;95543.91;6257716;22;20780;-83
2022/07/03 10:54:28;;;;;;;6.88;3.97;;;;;;;33.38;nan;95538.38;6260255;22;20073;-83
2022/07/03 10:57:00;;;;;;;4.28;3.83;;;;;;;33.76;nan;95530.84;6257790;22;20111;-83
2022/07/03 10:59:31;;;;;;;4.05;3.38;;;;;;;33.95;nan;95534.91;6257191;22;20897;-83
2022/07/03 11:02:23;;;;;;;7.38;4.75;;;;;;;34.27;nan;95510.41;6258580;22;20020;-83
2022/07/03 11:04:58;;;;;;;4.57;3.42;;;;;;;34.74;nan;95519.44;6260026;22;20023;-83
2022/07/03 11:07:28;;;;;;;10.48;3.65;;;;;;;34.52;nan;95456.88;6259617;22;20014;-83
2022/07/03 11:10:05;;;;;;;5.93;3.47;;;;;;;35.30;nan;95516.81;6257253;22;20015;-83
2022/07/03 11:12:56;;;;;;;6.22;3.97;;;;;;;35.70;nan;95509.28;6259804;22;20082;-83
2022/07/03 11:15:37;;;;;;;4.82;4.03;;;;;;;35.51;nan;95507.31;6258607;22;20016;-83
2022/07/03 11:18:05;;;;;;;;;;;;;;;35.65;nan;95507.00;6260847;22;20349;-83
2022/07/03 11:20:37;;;;;;;7.53;3.47;;;;;;;36.14;nan;95496.84;6260080;22;19922;-83
2022/07/03 11:23:25;;;;;;;3.78;3.47;;;;;;;36.14;nan;95491.31;6260036;22;20019;-83
2022/07/03 11:25:57;;;;;;;7.68;4.22;;;;;;;35.87;nan;95441.09;6255456;22;20553;-83
2022/07/03 11:28:31;;;;;;;8.00;3.55;;;;;;;36.41;nan;95495.81;6260329;22;20442;-83
2022/07/03 11:31:16;;;;;;;6.40;3.67;;;;;;;36.59;nan;95494.16;6260382;22;20490;-84
2022/07/03 11:33:53;;;;;;;7.75;3.90;;;;;;;36.88;nan;95493.41;6260308;22;20027;-84
2022/07/03 11:36:21;;;;;;;8.15;3.80;;;;;;;36.84;nan;95482.47;6257672;22;20398;-84
2022/07/03 11:38:46;;;;;;;4.80;4.20;;;;;;;37.17;nan;95485.13;6258234;22;20008;-84
2022/07/03 11:41:16;;;;;;;7.50;3.53;;;;;;;36.92;nan;95447.13;6256462;22;20103;-83
2022/07/03 11:43:48;;;;;;;5.97;3.55;;;;;;;37.15;nan;95466.22;6257917;22;20069;-84
2022/07/03 11:46:19;;;;;;;3.90;3.50;;;;;;;37.21;nan;95422.19;6257530;22;20008;-84
2022/07/03 11:48:44;;;;;;;8.48;3.33;;;;;;;37.69;nan;95471.72;6260080;22;20015;-84
2022/07/03 11:51:10;;;;;;;6.85;3.45;;;;;;;37.69;nan;95463.41;6257042;22;20481;-84
2022/07/03 11:53:39;;;;;;;4.85;3.40;;;;;;;37.25;nan;95420.88;6258061;22;20015;-84
2022/07/03 11:56:10;;;;;;;7.28;3.60;;;;;;;37.65;nan;95461.97;6258661;22;20077;-84
2022/07/03 11:58:52;;;;;;;;;;;;;;;37.81;nan;95470.19;6231872;22;20018;-84
2022/07/03 12:01:28;;;;;;;7.63;4.22;;;;;;;37.87;nan;95465.63;6231563;22;20456;-84
2022/07/03 12:03:54;;;;;;;7.25;3.58;;;;;;;37.92;nan;95470.59;6231191;22;20592;-84